ZTL Weather Bulletin
Prepared: 6/27/2016 8:00 PM by: CW valid for 9 hours
FOR ATC PLANNING PURPOSES
A cold front will push into north ZTL tonight. Ahead of this front, widespread showers and storms will slowly move to the south and east, and start to dissipate after 02z. Expect MVFR/VFR conditions outside of convection in SCT/BKN030-070 clouds. Flight Hazards outside of convection: None expected. Altimeters will remain above 29.92ins. Ceilings below 050 are expected in all ZLT areas.

Restricted Area Convection: R2102...Until 07z. R3002...Until 05z. R3004...Until 05z.
FTUS80 KATL 280148 AAA
KATL 280147Z 2802/2906 31006KT 6SM SHRA SCT035 BKN060
      TEMPO 2802/2803 VRB15G30KT 3SM TSRA BR BKN035CB
     FM280300 34005KT P6SM VCSH BKN035 BKN060
     FM281000 31004KT 6SM BR FEW005 BKN012
     FM281400 34006KT P6SM SCT012 BKN035 PROB30 2814/2819 5SM SHRA
      BR BKN012
     FM281900 02008G15KT P6SM BKN040
     FM290400 02004KT P6SM BKN060
Remark: SCATTERED TS EXPECTED ALL QUADS THRU PD.
FTUS31 KCLT 280100 AAA
KCLT 280057Z 2801/2824 18003KT P6SM FEW010 SCT050 BKN100
      TEMPO 2801/2803 -RA SCT010 BKN050
     FM280900 21003KT 5SM BR VCSH OVC015
     FM281300 23004KT P6SM OVC020 PROB30 2813/2818 4SM -TSRA
      OVC007CB
     FM281800 25005KT P6SM BKN045 PROB30 2818/2824 4SM -TSRA
      OVC025CB

Remark: SCATTERED TS EXPECTED ALL QUADS THRU PD.
12-18 Hour Forecast Map
Weather Map
Convective Gate Forecast
Convective Gate Forecast
Icing Gate Forecast Icing Gate Forecast

ATL products

TDA
TRACON BRF

Convection Gate FCST

Vertical Wind Profile (RAP)

Icing Gate FCST
Atlanta Observations
 

CLT products

TDA

TRACON BRF

Convection Gate FCST

Vertical Wind Profile (RAP)

Icing Gate FCST
Charlotte Observations



USA.gov is the U.S. government's official web portal to all federal, state and local government web resources and services.